createdAt,value
2022-11-19T00:01:27.769Z,100.00
2022-11-19T00:03:54.637Z,100.00
2022-11-19T00:06:26.771Z,100.00
2022-11-19T00:08:54.210Z,100.00
2022-11-19T00:11:41.856Z,100.00
2022-11-19T00:14:10.061Z,100.00
2022-11-19T00:16:36.877Z,100.00
2022-11-19T00:19:04.159Z,100.00
2022-11-19T00:21:31.033Z,100.00
2022-11-19T00:23:57.998Z,100.00
2022-11-19T00:26:24.733Z,100.00
2022-11-19T00:28:51.431Z,100.00
2022-11-19T00:31:18.826Z,100.00
2022-11-19T00:33:46.146Z,100.00
2022-11-19T00:36:15.352Z,100.00
2022-11-19T00:38:43.020Z,100.00
2022-11-19T00:41:09.999Z,100.00
2022-11-19T00:43:49.937Z,100.00
2022-11-19T00:46:20.730Z,100.00
2022-11-19T00:48:49.056Z,100.00
2022-11-19T00:51:17.103Z,100.00
2022-11-19T00:53:43.908Z,100.00
2022-11-19T00:56:12.800Z,100.00
2022-11-19T00:58:39.817Z,100.00
2022-11-19T01:01:07.617Z,100.00
2022-11-19T01:03:34.272Z,100.00
2022-11-19T01:06:01.262Z,100.00
2022-11-19T01:08:28.587Z,100.00
2022-11-19T01:10:55.431Z,100.00
2022-11-19T01:13:34.794Z,100.00
2022-11-19T01:16:03.905Z,100.00
2022-11-19T01:18:30.482Z,100.00
2022-11-19T01:20:57.249Z,100.00
2022-11-19T01:23:23.875Z,100.00
2022-11-19T01:25:50.472Z,100.00
2022-11-19T01:28:17.094Z,100.00
2022-11-19T01:30:44.333Z,100.00
2022-11-19T01:33:11.105Z,100.00
2022-11-19T01:35:38.067Z,100.00
2022-11-19T01:38:05.648Z,100.00
2022-11-19T01:40:33.112Z,100.00
2022-11-19T01:42:59.853Z,100.00
2022-11-19T01:45:33.818Z,100.00
2022-11-19T01:48:24.269Z,100.00
2022-11-19T01:51:04.954Z,100.00
2022-11-19T01:53:34.442Z,100.00
2022-11-19T01:56:05.827Z,100.00
2022-11-19T01:58:37.647Z,100.00
2022-11-19T02:01:05.134Z,100.00
2022-11-19T02:03:32.460Z,100.00
2022-11-19T02:06:01.763Z,100.00
2022-11-19T02:08:36.002Z,100.00
2022-11-19T02:11:17.809Z,100.00
2022-11-19T02:14:19.455Z,100.00
2022-11-19T02:17:01.305Z,100.00
2022-11-19T02:19:52.618Z,100.00
2022-11-19T02:22:26.248Z,100.00
2022-11-19T02:25:14.795Z,100.00
2022-11-19T02:28:20.227Z,100.00
2022-11-19T02:30:51.086Z,100.00
2022-11-19T02:33:36.159Z,100.00
2022-11-19T02:36:14.328Z,100.00
2022-11-19T02:38:49.537Z,100.00
2022-11-19T02:41:34.638Z,100.00
2022-11-19T02:44:45.263Z,100.00
2022-11-19T02:47:17.991Z,100.00
2022-11-19T02:49:45.354Z,100.00
2022-11-19T02:52:14.841Z,100.00
2022-11-19T02:54:41.585Z,100.00
2022-11-19T02:57:11.075Z,100.00
2022-11-19T02:59:58.809Z,100.00
2022-11-19T03:02:51.065Z,100.00
2022-11-19T03:05:22.043Z,100.00
2022-11-19T03:07:48.756Z,100.00
2022-11-19T03:10:18.206Z,100.00
2022-11-19T03:13:27.728Z,100.00
2022-11-19T03:16:14.642Z,100.00
2022-11-19T03:19:03.381Z,100.00
2022-11-19T03:21:46.814Z,100.00
2022-11-19T03:24:20.778Z,100.00
2022-11-19T03:27:02.925Z,100.00
2022-11-19T03:29:35.553Z,100.00
2022-11-19T03:32:08.921Z,100.00
2022-11-19T03:34:37.804Z,100.00
2022-11-19T03:37:07.420Z,100.00
2022-11-19T03:39:37.059Z,100.00
2022-11-19T03:42:08.786Z,100.00
2022-11-19T03:44:48.567Z,100.00
2022-11-19T03:47:26.182Z,100.00
2022-11-19T03:49:59.835Z,100.00
2022-11-19T03:52:26.707Z,100.00
2022-11-19T03:54:53.341Z,100.00
2022-11-19T03:57:23.713Z,100.00
2022-11-19T03:59:50.405Z,100.00
2022-11-19T04:02:17.791Z,100.00
2022-11-19T04:04:44.408Z,100.00
2022-11-19T04:07:18.609Z,100.00
2022-11-19T04:09:45.547Z,100.00
2022-11-19T04:12:17.991Z,100.00
2022-11-19T04:14:44.634Z,100.00
2022-11-19T04:17:11.623Z,100.00
2022-11-19T04:19:38.210Z,100.00
2022-11-19T04:22:04.784Z,100.00
2022-11-19T04:24:31.953Z,100.00
2022-11-19T04:26:58.627Z,100.00
2022-11-19T04:29:25.255Z,100.00
2022-11-19T04:31:52.002Z,100.00
2022-11-19T04:34:18.615Z,100.00
2022-11-19T04:36:45.842Z,100.00
2022-11-19T04:39:12.921Z,100.00
2022-11-19T04:41:40.741Z,100.00
2022-11-19T04:44:07.827Z,100.00
2022-11-19T04:46:34.604Z,100.00
2022-11-19T04:49:01.194Z,100.00
2022-11-19T04:51:27.864Z,100.00
2022-11-19T04:53:55.355Z,100.00
2022-11-19T04:56:21.982Z,100.00
2022-11-19T04:58:48.588Z,100.00
2022-11-19T05:01:15.310Z,100.00
2022-11-19T05:03:42.038Z,100.00
2022-11-19T05:06:08.923Z,100.00
2022-11-19T05:08:35.569Z,100.00
2022-11-19T05:11:02.116Z,100.00
2022-11-19T05:13:28.882Z,100.00
2022-11-19T05:15:55.647Z,100.00
2022-11-19T05:18:23.245Z,100.00
2022-11-19T05:20:49.802Z,100.00
2022-11-19T05:23:16.472Z,100.00
2022-11-19T05:25:43.413Z,100.00
2022-11-19T05:28:10.183Z,100.00
2022-11-19T05:30:36.747Z,100.00
2022-11-19T05:33:03.312Z,100.00
2022-11-19T05:35:29.948Z,100.00
2022-11-19T05:37:56.499Z,100.00
2022-11-19T05:40:23.181Z,100.00
2022-11-19T05:42:49.749Z,100.00
2022-11-19T05:45:16.555Z,100.00
2022-11-19T05:47:47.380Z,100.00
2022-11-19T05:50:15.317Z,100.00
2022-11-19T05:52:41.960Z,100.00
2022-11-19T05:55:08.868Z,100.00
2022-11-19T05:57:36.625Z,100.00
2022-11-19T06:00:05.247Z,100.00
2022-11-19T06:02:31.978Z,100.00
2022-11-19T06:04:58.640Z,100.00
2022-11-19T06:07:25.232Z,100.00
2022-11-19T06:09:51.849Z,100.00
2022-11-19T06:12:18.514Z,100.00
2022-11-19T06:14:45.162Z,100.00
2022-11-19T06:17:11.741Z,100.00
2022-11-19T06:19:38.308Z,100.00
2022-11-19T06:22:05.371Z,100.00
2022-11-19T06:24:32.289Z,100.00
2022-11-19T06:26:59.110Z,100.00
2022-11-19T06:29:25.831Z,100.00
2022-11-19T06:31:52.466Z,100.00
2022-11-19T06:34:19.225Z,100.00
2022-11-19T06:36:50.382Z,100.00
2022-11-19T06:39:17.507Z,100.00
2022-11-19T06:41:44.492Z,100.00
2022-11-19T06:44:11.206Z,100.00
2022-11-19T06:46:38.484Z,100.00
2022-11-19T06:49:06.042Z,100.00
2022-11-19T06:51:33.290Z,100.00
2022-11-19T06:53:59.894Z,100.00
2022-11-19T06:56:26.713Z,100.00
2022-11-19T06:58:58.174Z,100.00
2022-11-19T07:01:24.800Z,100.00
2022-11-19T07:03:51.917Z,100.00
2022-11-19T07:06:18.545Z,100.00
2022-11-19T07:08:45.156Z,100.00
2022-11-19T07:11:26.904Z,100.00
2022-11-19T07:13:57.550Z,100.00
2022-11-19T07:16:33.066Z,100.00
2022-11-19T07:19:01.916Z,100.00
2022-11-19T07:21:29.550Z,100.00
2022-11-19T07:23:57.043Z,100.00
2022-11-19T07:26:24.341Z,100.00
2022-11-19T07:28:50.938Z,100.00
2022-11-19T07:31:17.884Z,100.00
2022-11-19T07:33:44.842Z,100.00
2022-11-19T07:36:17.011Z,100.00
2022-11-19T07:38:45.478Z,100.00
2022-11-19T07:41:30.778Z,100.00
2022-11-19T07:43:57.392Z,100.00
2022-11-19T07:46:24.296Z,100.00
2022-11-19T07:48:54.952Z,100.00
2022-11-19T07:51:22.885Z,100.00
2022-11-19T07:53:50.118Z,100.00
2022-11-19T07:56:17.353Z,100.00
2022-11-19T07:58:44.085Z,100.00
2022-11-19T08:01:13.638Z,100.00
2022-11-19T08:03:42.801Z,100.00
2022-11-19T08:06:10.055Z,100.00
2022-11-19T08:08:36.651Z,100.00
2022-11-19T08:11:07.623Z,100.00
2022-11-19T08:13:35.291Z,100.00
2022-11-19T08:16:07.424Z,100.00
2022-11-19T08:18:34.122Z,100.00
2022-11-19T08:21:11.957Z,100.00
2022-11-19T08:23:39.459Z,100.00
2022-11-19T08:26:07.746Z,100.00
2022-11-19T08:28:34.729Z,100.00
2022-11-19T08:31:08.655Z,100.00
2022-11-19T08:33:36.146Z,100.00
2022-11-19T08:36:03.395Z,100.00
2022-11-19T08:38:33.318Z,100.00
2022-11-19T08:41:21.197Z,100.00
2022-11-19T08:43:47.710Z,100.00
2022-11-19T08:46:14.385Z,100.00
2022-11-19T08:48:41.060Z,100.00
2022-11-19T08:51:10.735Z,100.00
2022-11-19T08:53:37.625Z,100.00
2022-11-19T08:56:05.407Z,100.00
2022-11-19T08:58:32.096Z,100.00
2022-11-19T09:00:58.881Z,100.00
2022-11-19T09:03:25.864Z,100.00
2022-11-19T09:06:01.607Z,100.00
2022-11-19T09:08:29.162Z,100.00
2022-11-19T09:10:55.753Z,100.00
2022-11-19T09:13:22.461Z,100.00
2022-11-19T09:15:50.138Z,100.00
2022-11-19T09:18:16.841Z,100.00
2022-11-19T09:20:43.667Z,100.00
2022-11-19T09:23:10.368Z,100.00
2022-11-19T09:25:36.988Z,100.00
2022-11-19T09:28:03.790Z,100.00
2022-11-19T09:30:30.782Z,100.00
2022-11-19T09:32:59.586Z,100.00
2022-11-19T09:35:26.142Z,100.00
2022-11-19T09:37:52.878Z,100.00
2022-11-19T09:40:21.916Z,100.00
2022-11-19T09:43:15.828Z,100.00
2022-11-19T09:45:51.429Z,100.00
2022-11-19T09:48:25.713Z,100.00
2022-11-19T09:50:59.569Z,100.00
2022-11-19T09:53:33.314Z,100.00
2022-11-19T09:56:00.491Z,100.00
2022-11-19T09:58:40.193Z,100.00
2022-11-19T10:01:06.889Z,100.00
2022-11-19T10:03:34.143Z,100.00
2022-11-19T10:06:18.943Z,100.00
2022-11-19T10:09:07.543Z,100.00
2022-11-19T10:12:06.305Z,100.00
2022-11-19T10:15:02.975Z,100.00
2022-11-19T10:17:45.525Z,100.00
2022-11-19T10:20:39.913Z,100.00
2022-11-19T10:23:14.514Z,100.00
2022-11-19T10:25:50.059Z,99.62
2022-11-19T10:28:24.449Z,98.91
2022-11-19T10:30:55.448Z,97.03
2022-11-19T10:33:22.286Z,94.76
2022-11-19T10:35:54.522Z,95.37
2022-11-19T10:38:30.160Z,96.22
2022-11-19T10:41:13.036Z,99.23
2022-11-19T10:43:48.214Z,99.21
2022-11-19T10:46:21.240Z,98.73
2022-11-19T10:48:52.101Z,100.00
2022-11-19T10:51:23.482Z,99.77
2022-11-19T10:53:51.578Z,99.21
2022-11-19T10:56:22.403Z,100.00
2022-11-19T10:59:05.779Z,100.00
2022-11-19T11:01:34.156Z,98.22
2022-11-19T11:04:23.674Z,99.84
2022-11-19T11:06:53.279Z,99.59
2022-11-19T11:09:30.128Z,99.89
2022-11-19T11:12:17.633Z,98.49
2022-11-19T11:14:55.069Z,93.17
2022-11-19T11:17:27.731Z,95.89
2022-11-19T11:20:24.113Z,95.85
2022-11-19T11:23:02.917Z,95.41
2022-11-19T11:25:29.908Z,93.87
2022-11-19T11:28:07.906Z,95.17
2022-11-19T11:30:35.034Z,97.08
2022-11-19T11:33:28.466Z,98.61
2022-11-19T11:35:57.615Z,97.28
2022-11-19T11:38:26.963Z,96.72
2022-11-19T11:41:35.313Z,96.97
2022-11-19T11:44:01.791Z,96.55
2022-11-19T11:46:42.873Z,94.39
2022-11-19T11:49:24.411Z,93.54
2022-11-19T11:52:09.708Z,93.07
2022-11-19T11:54:55.670Z,93.82
2022-11-19T11:57:25.490Z,92.49
2022-11-19T11:59:52.148Z,93.60
2022-11-19T12:02:39.102Z,92.11
2022-11-19T12:05:15.016Z,90.61
2022-11-19T12:08:04.256Z,91.83
2022-11-19T12:10:55.427Z,93.72
2022-11-19T12:13:28.130Z,93.79
2022-11-19T12:16:05.201Z,92.35
2022-11-19T12:18:46.705Z,91.08
2022-11-19T12:21:41.355Z,90.37
2022-11-19T12:24:23.382Z,91.75
2022-11-19T12:27:02.483Z,93.29
2022-11-19T12:29:37.875Z,93.15
2022-11-19T12:32:19.399Z,93.96
2022-11-19T12:35:13.616Z,94.52
2022-11-19T12:37:58.990Z,93.46
2022-11-19T12:40:44.432Z,94.32
2022-11-19T12:43:41.211Z,95.56
2022-11-19T12:46:39.640Z,95.56
2022-11-19T12:49:21.862Z,94.95
2022-11-19T12:52:26.670Z,94.64
2022-11-19T12:55:19.573Z,95.58
2022-11-19T12:57:58.189Z,96.80
2022-11-19T13:00:29.077Z,97.05
2022-11-19T13:02:58.584Z,97.13
2022-11-19T13:05:52.959Z,96.84
2022-11-19T13:08:30.124Z,97.52
2022-11-19T13:11:09.250Z,97.68
2022-11-19T13:13:40.443Z,98.56
2022-11-19T13:16:16.430Z,98.61
2022-11-19T13:18:47.625Z,98.73
2022-11-19T13:21:47.639Z,98.72
2022-11-19T13:24:29.384Z,99.75
2022-11-19T13:27:01.545Z,99.61
2022-11-19T13:29:37.203Z,100.00
2022-11-19T13:32:10.528Z,100.00
2022-11-19T13:34:47.373Z,100.00
2022-11-19T13:37:35.625Z,100.00
2022-11-19T13:40:21.305Z,100.00
2022-11-19T13:43:31.173Z,100.00
2022-11-19T13:46:07.061Z,100.00
2022-11-19T13:48:43.212Z,100.00
2022-11-19T13:51:24.773Z,100.00
2022-11-19T13:53:51.765Z,100.00
2022-11-19T13:56:18.422Z,100.00
2022-11-19T13:58:51.448Z,100.00
2022-11-19T14:01:55.855Z,100.00
2022-11-19T14:04:37.519Z,100.00
2022-11-19T14:07:16.343Z,100.00
2022-11-19T14:10:24.536Z,100.00
2022-11-19T14:13:24.401Z,100.00
2022-11-19T14:16:29.500Z,100.00
2022-11-19T14:19:22.477Z,100.00
2022-11-19T14:22:15.078Z,100.00
2022-11-19T14:25:06.562Z,100.00
2022-11-19T14:27:34.424Z,100.00
2022-11-19T14:30:09.027Z,100.00
2022-11-19T14:32:48.130Z,100.00
2022-11-19T14:35:23.613Z,100.00
2022-11-19T14:37:53.988Z,100.00
2022-11-19T14:40:21.283Z,100.00
2022-11-19T14:43:18.714Z,100.00
2022-11-19T14:46:03.680Z,100.00
2022-11-19T14:48:47.501Z,100.00
2022-11-19T14:51:18.020Z,100.00
2022-11-19T14:54:14.756Z,100.00
2022-11-19T14:56:45.342Z,100.00
2022-11-19T14:59:14.711Z,100.00
2022-11-19T15:02:15.818Z,100.00
2022-11-19T15:04:51.222Z,100.00
2022-11-19T15:07:37.329Z,100.00
2022-11-19T15:10:10.229Z,100.00
2022-11-19T15:12:48.645Z,100.00
2022-11-19T15:15:21.319Z,100.00
2022-11-19T15:18:01.861Z,100.00
2022-11-19T15:20:50.399Z,100.00
2022-11-19T15:23:17.014Z,100.00
2022-11-19T15:26:03.348Z,100.00
2022-11-19T15:28:48.607Z,100.00
2022-11-19T15:31:36.547Z,100.00
2022-11-19T15:34:06.076Z,100.00
2022-11-19T15:36:39.796Z,100.00
2022-11-19T15:39:12.032Z,100.00
2022-11-19T15:42:00.405Z,100.00
2022-11-19T15:44:34.491Z,100.00
2022-11-19T15:47:05.827Z,100.00
2022-11-19T15:49:34.741Z,100.00
2022-11-19T15:52:17.309Z,100.00
2022-11-19T15:54:44.547Z,100.00
2022-11-19T15:57:17.269Z,100.00
2022-11-19T15:59:48.597Z,100.00
2022-11-19T16:02:42.671Z,100.00
2022-11-19T16:05:22.843Z,100.00
2022-11-19T16:07:51.481Z,100.00
2022-11-19T16:10:33.620Z,100.00
2022-11-19T16:13:20.804Z,100.00
2022-11-19T16:16:11.006Z,100.00
2022-11-19T16:18:51.816Z,100.00
2022-11-19T16:21:26.303Z,100.00
2022-11-19T16:24:12.647Z,100.00
2022-11-19T16:26:40.950Z,100.00
2022-11-19T16:29:12.654Z,100.00
2022-11-19T16:31:39.341Z,100.00
2022-11-19T16:34:05.910Z,100.00
2022-11-19T16:36:33.546Z,100.00
2022-11-19T16:39:00.188Z,100.00
2022-11-19T16:41:45.844Z,100.00
2022-11-19T16:44:16.056Z,100.00
2022-11-19T16:46:42.993Z,100.00
2022-11-19T16:49:32.218Z,100.00
2022-11-19T16:51:59.905Z,100.00
2022-11-19T16:54:54.371Z,100.00
2022-11-19T16:57:23.737Z,100.00
2022-11-19T16:59:53.924Z,100.00
2022-11-19T17:02:24.651Z,100.00
2022-11-19T17:04:55.548Z,100.00
2022-11-19T17:07:27.944Z,100.00
2022-11-19T17:10:13.209Z,100.00
2022-11-19T17:12:59.026Z,100.00
2022-11-19T17:15:33.362Z,100.00
2022-11-19T17:18:12.119Z,100.00
2022-11-19T17:20:38.651Z,100.00
2022-11-19T17:23:13.978Z,100.00
2022-11-19T17:25:51.924Z,100.00
2022-11-19T17:28:36.155Z,100.00
2022-11-19T17:31:06.452Z,100.00
2022-11-19T17:33:36.645Z,100.00
2022-11-19T17:36:03.772Z,100.00
2022-11-19T17:38:32.540Z,100.00
2022-11-19T17:41:05.192Z,100.00
2022-11-19T17:43:53.968Z,100.00
2022-11-19T17:46:22.015Z,100.00
2022-11-19T17:48:49.866Z,100.00
2022-11-19T17:51:22.078Z,100.00
2022-11-19T17:53:51.451Z,100.00
2022-11-19T17:56:29.180Z,100.00
2022-11-19T17:58:55.904Z,100.00
2022-11-19T18:01:22.966Z,100.00
2022-11-19T18:03:49.856Z,100.00
2022-11-19T18:06:17.881Z,100.00
2022-11-19T18:08:45.141Z,100.00
2022-11-19T18:11:15.436Z,100.00
2022-11-19T18:13:43.061Z,100.00
2022-11-19T18:16:15.146Z,100.00
2022-11-19T18:18:41.917Z,100.00
2022-11-19T18:21:13.153Z,100.00
2022-11-19T18:23:41.285Z,100.00
2022-11-19T18:26:16.646Z,100.00
2022-11-19T18:28:47.616Z,100.00
2022-11-19T18:31:19.709Z,100.00
2022-11-19T18:33:49.801Z,100.00
2022-11-19T18:36:17.015Z,100.00
2022-11-19T18:38:44.012Z,100.00
2022-11-19T18:41:12.229Z,100.00
2022-11-19T18:43:57.644Z,100.00
2022-11-19T18:46:24.417Z,100.00
2022-11-19T18:48:51.149Z,100.00
2022-11-19T18:51:17.947Z,100.00
2022-11-19T18:53:44.715Z,100.00
2022-11-19T18:56:19.097Z,100.00
2022-11-19T18:58:45.744Z,100.00
2022-11-19T19:01:13.156Z,100.00
2022-11-19T19:03:39.961Z,100.00
2022-11-19T19:06:08.437Z,100.00
2022-11-19T19:08:36.100Z,100.00
2022-11-19T19:11:24.962Z,100.00
2022-11-19T19:13:52.149Z,100.00
2022-11-19T19:16:19.128Z,100.00
2022-11-19T19:18:45.778Z,100.00
2022-11-19T19:21:16.974Z,100.00
2022-11-19T19:23:44.035Z,100.00
2022-11-19T19:26:12.537Z,100.00
2022-11-19T19:28:39.837Z,100.00
2022-11-19T19:31:07.267Z,100.00
2022-11-19T19:33:34.273Z,100.00
2022-11-19T19:36:04.493Z,100.00
2022-11-19T19:38:31.092Z,100.00
2022-11-19T19:41:10.431Z,100.00
2022-11-19T19:43:37.046Z,100.00
2022-11-19T19:46:09.173Z,100.00
2022-11-19T19:48:36.640Z,100.00
2022-11-19T19:51:03.981Z,100.00
2022-11-19T19:53:30.845Z,100.00
2022-11-19T19:56:18.077Z,100.00
2022-11-19T19:58:45.965Z,100.00
2022-11-19T20:01:15.449Z,100.00
2022-11-19T20:03:43.708Z,100.00
2022-11-19T20:06:12.405Z,100.00
2022-11-19T20:08:40.073Z,100.00
2022-11-19T20:11:09.497Z,100.00
2022-11-19T20:13:36.875Z,100.00
2022-11-19T20:16:13.240Z,100.00
2022-11-19T20:18:43.894Z,100.00
2022-11-19T20:21:13.425Z,100.00
2022-11-19T20:23:41.764Z,100.00
2022-11-19T20:26:15.124Z,100.00
2022-11-19T20:28:41.794Z,100.00
2022-11-19T20:31:10.156Z,100.00
2022-11-19T20:33:37.606Z,100.00
2022-11-19T20:36:05.453Z,100.00
2022-11-19T20:38:32.337Z,100.00
2022-11-19T20:41:04.640Z,100.00
2022-11-19T20:43:52.789Z,100.00
2022-11-19T20:46:21.393Z,100.00
2022-11-19T20:48:48.863Z,100.00
2022-11-19T20:51:19.971Z,100.00
2022-11-19T20:53:46.962Z,100.00
2022-11-19T20:56:14.532Z,100.00
2022-11-19T20:58:41.141Z,100.00
2022-11-19T21:01:10.498Z,100.00
2022-11-19T21:03:37.744Z,100.00
2022-11-19T21:06:06.738Z,100.00
2022-11-19T21:08:34.634Z,100.00
2022-11-19T21:11:04.378Z,100.00
2022-11-19T21:13:31.215Z,100.00
2022-11-19T21:15:59.351Z,100.00
2022-11-19T21:18:27.189Z,100.00
2022-11-19T21:21:01.886Z,100.00
2022-11-19T21:23:29.015Z,100.00
2022-11-19T21:26:05.866Z,100.00
2022-11-19T21:28:32.900Z,100.00
2022-11-19T21:31:00.168Z,100.00
2022-11-19T21:33:27.195Z,100.00
2022-11-19T21:35:58.433Z,100.00
2022-11-19T21:38:26.649Z,100.00
2022-11-19T21:40:55.687Z,100.00
2022-11-19T21:43:23.837Z,100.00
2022-11-19T21:45:50.702Z,100.00
2022-11-19T21:48:17.456Z,100.00
2022-11-19T21:50:44.259Z,100.00
2022-11-19T21:53:12.267Z,100.00
2022-11-19T21:55:41.553Z,100.00
2022-11-19T21:58:08.227Z,100.00
2022-11-19T22:00:34.917Z,100.00
2022-11-19T22:03:01.946Z,100.00
2022-11-19T22:05:28.627Z,100.00
2022-11-19T22:07:55.385Z,100.00
2022-11-19T22:10:22.024Z,100.00
2022-11-19T22:12:48.539Z,100.00
2022-11-19T22:15:15.122Z,100.00
2022-11-19T22:17:41.727Z,100.00
2022-11-19T22:20:08.635Z,100.00
2022-11-19T22:22:35.395Z,100.00
2022-11-19T22:25:02.078Z,100.00
2022-11-19T22:27:29.496Z,100.00
2022-11-19T22:29:56.729Z,100.00
2022-11-19T22:32:23.601Z,100.00
2022-11-19T22:34:50.185Z,100.00
2022-11-19T22:37:16.804Z,100.00
2022-11-19T22:39:44.051Z,100.00
2022-11-19T22:42:10.621Z,100.00
2022-11-19T22:44:37.259Z,100.00
2022-11-19T22:47:03.855Z,100.00
2022-11-19T22:49:30.449Z,100.00
2022-11-19T22:51:57.096Z,100.00
2022-11-19T22:54:23.653Z,100.00
2022-11-19T22:56:50.218Z,100.00
2022-11-19T22:59:18.095Z,100.00
2022-11-19T23:01:44.827Z,100.00
2022-11-19T23:04:14.932Z,100.00
2022-11-19T23:06:41.614Z,100.00
2022-11-19T23:09:08.580Z,100.00
2022-11-19T23:11:54.721Z,100.00
2022-11-19T23:14:21.442Z,100.00
2022-11-19T23:16:48.259Z,100.00
2022-11-19T23:19:15.033Z,100.00
2022-11-19T23:21:41.756Z,100.00
2022-11-19T23:24:09.912Z,100.00
2022-11-19T23:26:36.908Z,100.00
2022-11-19T23:29:04.510Z,99.31
2022-11-19T23:31:37.003Z,97.23
2022-11-19T23:34:04.963Z,96.30
2022-11-19T23:36:41.602Z,93.71
2022-11-19T23:39:14.685Z,93.55
2022-11-19T23:41:41.642Z,95.38
2022-11-19T23:44:08.501Z,95.32
2022-11-19T23:46:36.001Z,96.42
2022-11-19T23:49:03.904Z,92.62
2022-11-19T23:51:33.695Z,86.40
2022-11-19T23:54:00.613Z,86.40
2022-11-19T23:56:29.574Z,81.16
2022-11-19T23:58:56.244Z,79.95
